Oxford, NE (68967)

7:28 AM CST on December 09, 2016 (GMT -0600)
Brewster | | Change Station

Elev 2310 ft 40.45 °N, 99.34 °W | Updated 13 minutes ago

Overcast
Overcast
15 °F
Feels Like 3 °F
N
9
Wind Variable Wind from SSE

Today
High -- | Low -- °F
--% Chance of Precip.
Yesterday
High -- | Low -- °F
Precip. -- in
Pressure 30.43 in
Visibility 10.0 miles
Clouds Overcast 4400 ft
Windchill 3 °F
Dew Point 7 °F
Humidity 72%
Rainfall 0.00 in
Snow Depth Not available.
7:49 AM 5:12 PM
Waxing Gibbous, 74% visible
METAR KHDE 091315Z AUTO 16008KT 10SM OVC044 M10/M14 A3043 RMK AO2 T10961138
Pressure 30.43 in
Visibility 10.0 miles
Clouds Overcast 4400 ft
Windchill 3 °F
Dew Point 7 °F
Humidity 72%
Rainfall 0.00 in
Snow Depth Not available.
7:49 AM 5:12 PM
Waxing Gibbous, 74% visible
METAR KHDE 091315Z AUTO 16008KT 10SM OVC044 M10/M14 A3043 RMK AO2 T10961138

10-Day Weather Forecast

Almanac

Astronomy

Dec. 09, 2016 Rise Set
Actual Time
Civil Twilight
Nautical Twilight
Astronomical Twilight
Moon
Length of Visible Light
Length of Day
Tomorrow will be .
, % of the Moon is Illuminated

Today's Extremes

State Highs State Lows

Community

WunderPhotos

Upload Photos

1,956,407 photos uploaded!

WunderBlog® & News

Nearby

Air Quality

  Air Quality AQ Index Pollutant
Not available.

Snow Depth

Station Depth Elevation

Earthquake Activity

City Distance Mag. Time & Date
Minimum magnitude displayed is 2.5.

Coastal Water Temperatures

Place Temperature

Stations

Nearby Weather Stations

Station Location Temp. Windchill Dew Point Humidity Wind Precip. Elev Updated Type
                   

Watches & Warnings

There are currently no watches in effect.